createdAt,value
2019-03-22T00:00:35.224Z,86.40
2019-03-22T00:03:04.290Z,86.30
2019-03-22T00:05:32.750Z,86.30
2019-03-22T00:08:01.500Z,86.50
2019-03-22T00:10:30.045Z,86.50
2019-03-22T00:12:59.842Z,86.50
2019-03-22T00:15:28.700Z,86.30
2019-03-22T00:17:57.205Z,86.40
2019-03-22T00:20:26.759Z,86.40
2019-03-22T00:22:55.335Z,86.20
2019-03-22T00:25:24.071Z,86.20
2019-03-22T00:27:53.004Z,86.00
2019-03-22T00:30:21.629Z,86.00
2019-03-22T00:32:50.114Z,86.00
2019-03-22T00:35:18.698Z,86.00
2019-03-22T00:37:47.275Z,86.00
2019-03-22T00:40:15.886Z,86.00
2019-03-22T00:42:44.460Z,86.10
2019-03-22T00:45:13.345Z,86.20
2019-03-22T00:47:41.829Z,86.50
2019-03-22T00:50:12.680Z,86.70
2019-03-22T00:52:41.214Z,86.80
2019-03-22T00:55:10.302Z,87.00
2019-03-22T00:57:38.852Z,87.20
2019-03-22T01:00:10.490Z,87.10
2019-03-22T01:02:39.203Z,87.20
2019-03-22T01:05:09.382Z,87.10
2019-03-22T01:07:38.414Z,87.50
2019-03-22T01:10:09.931Z,87.40
2019-03-22T01:12:39.202Z,87.60
2019-03-22T01:15:10.381Z,87.70
2019-03-22T01:17:39.012Z,87.90
2019-03-22T01:20:09.236Z,87.80
2019-03-22T01:22:37.815Z,88.00
2019-03-22T01:25:08.387Z,88.10
2019-03-22T01:27:40.947Z,88.10
2019-03-22T01:30:10.713Z,88.00
2019-03-22T01:32:39.261Z,88.00
2019-03-22T01:35:09.050Z,88.00
2019-03-22T01:37:38.031Z,87.90
2019-03-22T01:40:08.701Z,87.80
2019-03-22T01:42:37.334Z,87.90
2019-03-22T01:45:08.961Z,87.90
2019-03-22T01:47:37.764Z,87.90
2019-03-22T01:50:11.860Z,88.00
2019-03-22T01:52:40.349Z,87.90
2019-03-22T01:55:09.349Z,87.60
2019-03-22T01:57:37.849Z,87.60
2019-03-22T02:00:09.701Z,87.60
2019-03-22T02:02:38.247Z,87.80
2019-03-22T02:05:07.777Z,88.50
2019-03-22T02:07:36.253Z,87.90
2019-03-22T02:10:12.515Z,87.90
2019-03-22T02:12:41.220Z,87.90
2019-03-22T02:15:15.077Z,87.80
2019-03-22T02:17:43.689Z,87.80
2019-03-22T02:20:14.431Z,87.80
2019-03-22T02:22:43.277Z,87.90
2019-03-22T02:25:12.542Z,87.90
2019-03-22T02:27:41.870Z,88.00
2019-03-22T02:30:17.617Z,87.90
2019-03-22T02:32:46.373Z,88.00
2019-03-22T02:35:27.554Z,88.10
2019-03-22T02:37:45.340Z,88.20
2019-03-22T02:40:14.469Z,88.40
2019-03-22T02:42:43.020Z,88.40
2019-03-22T02:45:14.311Z,88.60
2019-03-22T02:47:43.332Z,89.00
2019-03-22T02:50:18.422Z,88.80
2019-03-22T02:52:44.159Z,89.10
2019-03-22T02:55:13.695Z,89.90
2019-03-22T02:57:42.336Z,90.00
2019-03-22T03:00:16.304Z,90.00
2019-03-22T03:02:45.275Z,89.80
2019-03-22T03:05:15.489Z,90.00
2019-03-22T03:07:44.572Z,89.90
2019-03-22T03:10:16.033Z,90.00
2019-03-22T03:12:45.751Z,90.00
2019-03-22T03:15:16.352Z,90.20
2019-03-22T03:17:45.733Z,90.30
2019-03-22T03:20:18.946Z,90.30
2019-03-22T03:22:47.671Z,90.30
2019-03-22T03:25:17.701Z,90.30
2019-03-22T03:27:46.679Z,90.40
2019-03-22T03:30:18.144Z,90.50
2019-03-22T03:32:46.657Z,90.50
2019-03-22T03:35:16.856Z,90.60
2019-03-22T03:37:45.495Z,90.70
2019-03-22T03:40:15.196Z,90.60
2019-03-22T03:42:43.880Z,90.50
2019-03-22T03:45:32.638Z,90.50
2019-03-22T03:48:03.383Z,90.50
2019-03-22T03:50:32.194Z,90.60
2019-03-22T03:53:00.844Z,90.70
2019-03-22T03:55:29.877Z,90.50
2019-03-22T03:57:58.570Z,90.50
2019-03-22T04:00:30.380Z,90.50
2019-03-22T04:02:58.879Z,90.60
2019-03-22T04:05:27.465Z,90.60
2019-03-22T04:07:56.425Z,90.70
2019-03-22T04:10:24.997Z,90.80
2019-03-22T04:12:53.525Z,90.70
2019-03-22T04:15:22.253Z,90.80
2019-03-22T04:17:50.731Z,90.80
2019-03-22T04:20:19.288Z,90.80
2019-03-22T04:22:49.360Z,90.90
2019-03-22T04:25:18.043Z,90.90
2019-03-22T04:27:46.593Z,90.90
2019-03-22T04:30:15.705Z,91.00
2019-03-22T04:32:44.538Z,91.00
2019-03-22T04:35:13.140Z,91.00
2019-03-22T04:37:41.686Z,91.00
2019-03-22T04:40:24.999Z,90.90
2019-03-22T04:42:53.781Z,91.10
2019-03-22T04:45:24.661Z,91.20
2019-03-22T04:47:56.602Z,91.20
2019-03-22T04:50:27.714Z,91.20
2019-03-22T04:53:01.245Z,91.20
2019-03-22T04:55:34.473Z,91.20
2019-03-22T04:58:04.076Z,91.10
2019-03-22T05:00:34.298Z,91.10
2019-03-22T05:03:04.523Z,91.10
2019-03-22T05:05:33.534Z,91.10
2019-03-22T05:08:03.496Z,91.10
2019-03-22T05:10:33.999Z,91.20
2019-03-22T05:13:05.037Z,91.20
2019-03-22T05:15:34.756Z,91.30
2019-03-22T05:18:05.044Z,91.30
2019-03-22T05:20:35.851Z,91.40
2019-03-22T05:23:06.438Z,91.20
2019-03-22T05:25:36.242Z,91.20
2019-03-22T05:28:07.214Z,91.00
2019-03-22T05:30:47.622Z,90.90
2019-03-22T05:33:16.092Z,90.90
2019-03-22T05:35:44.575Z,90.90
2019-03-22T05:38:13.057Z,91.00
2019-03-22T05:40:41.613Z,91.00
2019-03-22T05:43:10.081Z,91.00
2019-03-22T05:45:38.632Z,91.10
2019-03-22T05:48:07.388Z,91.20
2019-03-22T05:50:35.993Z,91.30
2019-03-22T05:53:04.899Z,91.30
2019-03-22T05:55:33.842Z,91.50
2019-03-22T05:58:02.329Z,91.60
2019-03-22T06:00:30.803Z,91.70
2019-03-22T06:02:59.358Z,91.80
2019-03-22T06:05:27.859Z,91.90
2019-03-22T06:07:56.328Z,91.90
2019-03-22T06:10:24.862Z,91.80
2019-03-22T06:12:53.485Z,91.70
2019-03-22T06:15:22.028Z,91.70
2019-03-22T06:17:51.904Z,91.70
2019-03-22T06:20:20.941Z,91.70
2019-03-22T06:22:49.481Z,91.60
2019-03-22T06:25:18.245Z,91.60
2019-03-22T06:27:46.932Z,91.50
2019-03-22T06:30:15.906Z,91.50
2019-03-22T06:32:44.388Z,91.50
2019-03-22T06:35:13.157Z,91.50
2019-03-22T06:37:41.944Z,91.60
2019-03-22T06:40:10.752Z,91.60
2019-03-22T06:42:39.759Z,91.60
2019-03-22T06:45:09.294Z,91.60
2019-03-22T06:47:37.926Z,91.70
2019-03-22T06:50:08.472Z,91.80
2019-03-22T06:52:37.551Z,92.00
2019-03-22T06:55:07.650Z,92.10
2019-03-22T06:57:36.212Z,92.00
2019-03-22T07:00:10.787Z,92.00
2019-03-22T07:02:40.524Z,92.00
2019-03-22T07:05:09.233Z,92.00
2019-03-22T07:07:37.786Z,92.40
2019-03-22T07:10:09.196Z,92.00
2019-03-22T07:12:37.895Z,91.90
2019-03-22T07:15:07.608Z,91.70
2019-03-22T07:17:36.079Z,91.50
2019-03-22T07:20:09.329Z,91.50
2019-03-22T07:22:39.753Z,91.60
2019-03-22T07:25:09.477Z,91.60
2019-03-22T07:27:37.974Z,91.70
2019-03-22T07:30:18.698Z,91.70
2019-03-22T07:32:39.857Z,91.50
2019-03-22T07:35:08.765Z,91.40
2019-03-22T07:37:37.329Z,91.50
2019-03-22T07:40:10.908Z,91.40
2019-03-22T07:42:39.865Z,91.50
2019-03-22T07:45:11.244Z,91.70
2019-03-22T07:47:39.746Z,91.80
2019-03-22T07:50:10.781Z,91.70
2019-03-22T07:52:39.423Z,91.70
2019-03-22T07:55:09.110Z,91.60
2019-03-22T07:57:37.646Z,91.50
2019-03-22T08:00:13.229Z,91.60
2019-03-22T08:02:42.180Z,91.60
2019-03-22T08:05:11.204Z,91.70
2019-03-22T08:07:39.778Z,91.80
2019-03-22T08:10:09.993Z,91.70
2019-03-22T08:12:38.573Z,91.70
2019-03-22T08:15:08.765Z,92.10
2019-03-22T08:17:37.773Z,91.80
2019-03-22T08:20:08.773Z,91.80
2019-03-22T08:22:37.244Z,91.80
2019-03-22T08:25:06.394Z,91.70
2019-03-22T08:27:35.071Z,91.60
2019-03-22T08:30:05.445Z,91.60
2019-03-22T08:32:34.127Z,91.50
2019-03-22T08:35:02.742Z,91.50
2019-03-22T08:37:31.584Z,91.50
2019-03-22T08:40:00.220Z,91.40
2019-03-22T08:42:29.761Z,91.40
2019-03-22T08:44:58.787Z,91.40
2019-03-22T08:47:34.292Z,91.40
2019-03-22T08:49:59.313Z,91.30
2019-03-22T08:52:27.889Z,91.30
2019-03-22T08:54:56.410Z,91.20
2019-03-22T08:57:25.255Z,91.20
2019-03-22T08:59:54.269Z,91.10
2019-03-22T09:02:22.842Z,91.00
2019-03-22T09:04:51.387Z,90.80
2019-03-22T09:07:20.277Z,90.50
2019-03-22T09:09:48.845Z,90.20
2019-03-22T09:12:17.577Z,90.00
2019-03-22T09:14:46.158Z,90.00
2019-03-22T09:17:14.789Z,90.10
2019-03-22T09:19:43.374Z,90.10
2019-03-22T09:22:11.855Z,90.00
2019-03-22T09:24:40.339Z,89.90
2019-03-22T09:27:08.844Z,89.80
2019-03-22T09:29:37.402Z,89.60
2019-03-22T09:32:06.062Z,89.60
2019-03-22T09:34:34.625Z,89.30
2019-03-22T09:37:03.207Z,88.80
2019-03-22T09:39:31.797Z,89.20
2019-03-22T09:42:00.297Z,87.90
2019-03-22T09:44:30.286Z,87.50
2019-03-22T09:46:59.343Z,87.20
2019-03-22T09:49:28.271Z,86.70
2019-03-22T09:51:56.819Z,86.10
2019-03-22T09:54:27.311Z,85.60
2019-03-22T09:56:57.669Z,84.90
2019-03-22T09:59:26.167Z,84.10
2019-03-22T10:01:54.798Z,83.10
2019-03-22T10:04:23.443Z,82.70
2019-03-22T10:06:52.085Z,82.10
2019-03-22T10:09:20.626Z,81.90
2019-03-22T10:11:49.146Z,81.50
2019-03-22T10:14:17.751Z,81.60
2019-03-22T10:16:47.653Z,81.60
2019-03-22T10:19:16.818Z,81.40
2019-03-22T10:21:45.299Z,80.90
2019-03-22T10:24:13.837Z,80.80
2019-03-22T10:26:42.919Z,80.70
2019-03-22T10:29:11.403Z,80.40
2019-03-22T10:31:39.971Z,80.60
2019-03-22T10:34:08.586Z,80.70
2019-03-22T10:36:37.111Z,80.50
2019-03-22T10:39:08.497Z,80.30
2019-03-22T10:41:37.835Z,80.00
2019-03-22T10:44:06.418Z,79.60
2019-03-22T10:46:35.023Z,79.30
2019-03-22T10:49:06.424Z,79.30
2019-03-22T10:51:34.973Z,79.00
2019-03-22T10:54:03.524Z,78.30
2019-03-22T10:56:32.011Z,78.00
2019-03-22T10:59:00.501Z,77.80
2019-03-22T11:01:29.861Z,77.50
2019-03-22T11:03:58.454Z,76.80
2019-03-22T11:06:27.184Z,76.70
2019-03-22T11:08:55.801Z,76.50
2019-03-22T11:11:24.445Z,75.90
2019-03-22T11:13:54.797Z,75.50
2019-03-22T11:16:23.341Z,75.10
2019-03-22T11:18:51.905Z,74.60
2019-03-22T11:21:20.813Z,74.30
2019-03-22T11:23:49.419Z,74.20
2019-03-22T11:26:18.045Z,73.80
2019-03-22T11:28:46.551Z,73.60
2019-03-22T11:31:15.092Z,73.00
2019-03-22T11:33:43.691Z,72.40
2019-03-22T11:36:12.192Z,72.30
2019-03-22T11:38:40.757Z,71.80
2019-03-22T11:41:09.367Z,71.50
2019-03-22T11:43:37.918Z,70.70
2019-03-22T11:46:06.398Z,70.70
2019-03-22T11:48:34.865Z,70.30
2019-03-22T11:51:04.428Z,69.70
2019-03-22T11:53:33.044Z,69.30
2019-03-22T11:56:01.579Z,68.60
2019-03-22T11:58:30.153Z,68.80
2019-03-22T12:00:58.701Z,68.10
2019-03-22T12:03:27.257Z,67.80
2019-03-22T12:05:55.756Z,67.50
2019-03-22T12:08:25.539Z,66.90
2019-03-22T12:10:54.545Z,66.80
2019-03-22T12:13:23.044Z,66.30
2019-03-22T12:15:53.226Z,65.90
2019-03-22T12:18:21.709Z,65.00
2019-03-22T12:20:50.317Z,65.00
2019-03-22T12:23:18.870Z,64.80
2019-03-22T12:25:47.786Z,65.50
2019-03-22T12:28:16.373Z,64.10
2019-03-22T12:30:44.837Z,63.40
2019-03-22T12:33:13.886Z,62.00
2019-03-22T12:35:42.696Z,62.80
2019-03-22T12:38:13.821Z,61.50
2019-03-22T12:40:42.093Z,61.60
2019-03-22T12:43:10.697Z,61.00
2019-03-22T12:45:39.434Z,60.90
2019-03-22T12:48:07.907Z,60.10
2019-03-22T12:50:36.397Z,60.00
2019-03-22T12:53:05.691Z,59.20
2019-03-22T12:55:34.176Z,58.70
2019-03-22T12:58:02.999Z,58.40
2019-03-22T13:00:31.808Z,57.60
2019-03-22T13:03:00.912Z,58.00
2019-03-22T13:05:29.958Z,57.50
2019-03-22T13:07:58.576Z,57.10
2019-03-22T13:10:28.508Z,56.40
2019-03-22T13:12:57.198Z,56.10
2019-03-22T13:15:26.199Z,55.50
2019-03-22T13:17:54.826Z,54.80
2019-03-22T13:20:23.319Z,55.10
2019-03-22T13:22:51.885Z,55.50
2019-03-22T13:25:21.330Z,55.40
2019-03-22T13:27:50.281Z,54.80
2019-03-22T13:30:35.527Z,54.00
2019-03-22T13:33:06.004Z,54.40
2019-03-22T13:35:34.824Z,54.40
2019-03-22T13:38:06.525Z,54.70
2019-03-22T13:40:35.014Z,54.40
2019-03-22T13:43:03.577Z,53.70
2019-03-22T13:45:32.060Z,53.70
2019-03-22T13:48:00.608Z,53.60
2019-03-22T13:50:29.124Z,53.20
2019-03-22T13:52:57.656Z,52.60
2019-03-22T13:55:26.225Z,51.80
2019-03-22T13:57:54.742Z,51.70
2019-03-22T14:00:23.365Z,51.30
2019-03-22T14:03:02.088Z,51.10
2019-03-22T14:05:23.656Z,50.50
2019-03-22T14:07:52.602Z,50.40
2019-03-22T14:10:32.293Z,50.10
2019-03-22T14:13:02.911Z,50.30
2019-03-22T14:15:31.931Z,49.80
2019-03-22T14:18:01.416Z,49.70
2019-03-22T14:20:30.814Z,49.30
2019-03-22T14:22:59.616Z,49.30
2019-03-22T14:25:28.841Z,49.30
2019-03-22T14:27:57.364Z,49.20
2019-03-22T14:30:25.834Z,48.70
2019-03-22T14:32:55.138Z,48.30
2019-03-22T14:35:23.701Z,48.30
2019-03-22T14:37:53.066Z,48.40
2019-03-22T14:40:22.271Z,48.20
2019-03-22T14:42:51.299Z,47.80
2019-03-22T14:45:20.239Z,47.00
2019-03-22T14:47:48.915Z,47.70
2019-03-22T14:50:17.870Z,48.10
2019-03-22T14:52:46.441Z,47.50
2019-03-22T14:55:16.659Z,48.10
2019-03-22T14:57:49.937Z,47.60
2019-03-22T15:00:16.191Z,47.20
2019-03-22T15:02:44.957Z,47.00
2019-03-22T15:05:13.496Z,46.60
2019-03-22T15:07:42.113Z,45.40
2019-03-22T15:10:14.588Z,46.80
2019-03-22T15:12:43.614Z,46.10
2019-03-22T15:15:14.444Z,46.10
2019-03-22T15:17:50.562Z,46.00
2019-03-22T15:20:36.962Z,46.20
2019-03-22T15:23:23.614Z,45.60
2019-03-22T15:25:59.496Z,45.50
2019-03-22T15:28:32.600Z,46.10
2019-03-22T15:31:11.610Z,45.80
2019-03-22T15:33:47.568Z,45.40
2019-03-22T15:36:18.084Z,45.20
2019-03-22T15:39:00.617Z,45.10
2019-03-22T15:41:29.854Z,45.00
2019-03-22T15:43:58.357Z,44.90
2019-03-22T15:46:26.947Z,44.80
2019-03-22T15:48:55.884Z,44.90
2019-03-22T15:51:24.456Z,44.60
2019-03-22T15:53:53.004Z,44.60
2019-03-22T15:56:21.512Z,44.60
2019-03-22T15:58:49.984Z,44.50
2019-03-22T16:01:18.491Z,44.60
2019-03-22T16:03:47.050Z,44.40
2019-03-22T16:06:15.608Z,44.60
2019-03-22T16:08:44.461Z,44.50
2019-03-22T16:11:13.094Z,44.50
2019-03-22T16:13:41.571Z,44.50
2019-03-22T16:16:10.042Z,44.30
2019-03-22T16:18:38.545Z,44.60
2019-03-22T16:21:08.560Z,44.40
2019-03-22T16:23:37.035Z,44.30
2019-03-22T16:26:05.598Z,44.30
2019-03-22T16:28:34.135Z,44.20
2019-03-22T16:31:02.700Z,44.50
2019-03-22T16:33:31.420Z,45.30
2019-03-22T16:36:00.142Z,44.20
2019-03-22T16:38:30.667Z,44.60
2019-03-22T16:41:00.095Z,44.30
2019-03-22T16:43:28.602Z,44.00
2019-03-22T16:45:57.340Z,44.00
2019-03-22T16:48:26.043Z,44.10
2019-03-22T16:50:54.862Z,45.30
2019-03-22T16:53:23.467Z,45.30
2019-03-22T16:55:52.119Z,45.50
2019-03-22T16:58:20.594Z,45.30
2019-03-22T17:00:50.069Z,45.70
2019-03-22T17:03:19.180Z,45.70
2019-03-22T17:05:47.899Z,45.70
2019-03-22T17:08:16.530Z,45.80
2019-03-22T17:10:45.088Z,46.00
2019-03-22T17:13:13.882Z,46.10
2019-03-22T17:15:42.573Z,45.90
2019-03-22T17:18:11.065Z,45.90
2019-03-22T17:20:39.546Z,45.80
2019-03-22T17:23:08.098Z,46.00
2019-03-22T17:25:36.633Z,46.10
2019-03-22T17:28:05.581Z,46.10
2019-03-22T17:30:35.515Z,46.50
2019-03-22T17:33:04.940Z,46.30
2019-03-22T17:35:33.774Z,46.50
2019-03-22T17:38:02.407Z,46.50
2019-03-22T17:40:30.884Z,46.50
2019-03-22T17:42:59.479Z,46.60
2019-03-22T17:45:29.255Z,47.00
2019-03-22T17:47:58.264Z,47.20
2019-03-22T17:50:26.773Z,47.30
2019-03-22T17:52:55.244Z,48.40
2019-03-22T17:55:24.093Z,47.70
2019-03-22T17:57:53.891Z,47.80
2019-03-22T18:00:24.568Z,47.60
2019-03-22T18:02:53.182Z,47.80
2019-03-22T18:05:22.462Z,48.00
2019-03-22T18:07:52.674Z,48.30
2019-03-22T18:10:23.228Z,48.70
2019-03-22T18:12:51.908Z,48.80
2019-03-22T18:15:20.879Z,49.00
2019-03-22T18:17:49.674Z,49.10
2019-03-22T18:20:18.321Z,49.90
2019-03-22T18:22:46.959Z,49.20
2019-03-22T18:25:15.869Z,49.30
2019-03-22T18:27:44.993Z,49.50
2019-03-22T18:30:20.537Z,49.70
2019-03-22T18:32:49.673Z,50.10
2019-03-22T18:35:19.797Z,50.50
2019-03-22T18:37:48.267Z,51.10
2019-03-22T18:40:18.540Z,51.20
2019-03-22T18:42:47.002Z,51.80
2019-03-22T18:45:15.679Z,51.90
2019-03-22T18:47:44.460Z,52.00
2019-03-22T18:50:14.047Z,52.20
2019-03-22T18:52:43.795Z,52.40
2019-03-22T18:55:12.831Z,52.80
2019-03-22T18:57:41.526Z,53.10
2019-03-22T19:00:35.470Z,53.10
2019-03-22T19:03:08.287Z,53.40
2019-03-22T19:05:36.841Z,53.70
2019-03-22T19:08:07.094Z,54.10
2019-03-22T19:10:35.571Z,54.20
2019-03-22T19:13:04.689Z,54.50
2019-03-22T19:15:33.287Z,54.80
2019-03-22T19:18:02.284Z,54.90
2019-03-22T19:20:30.863Z,55.60
2019-03-22T19:22:59.342Z,55.40
2019-03-22T19:25:27.901Z,55.50
2019-03-22T19:27:56.391Z,55.70
2019-03-22T19:30:25.097Z,55.90
2019-03-22T19:32:53.580Z,56.10
2019-03-22T19:35:23.274Z,56.30
2019-03-22T19:37:52.886Z,56.40
2019-03-22T19:40:21.441Z,56.60
2019-03-22T19:42:50.177Z,56.90
2019-03-22T19:45:18.735Z,57.20
2019-03-22T19:47:53.373Z,57.40
2019-03-22T19:50:23.786Z,57.80
2019-03-22T19:52:52.319Z,58.10
2019-03-22T19:55:20.834Z,58.50
2019-03-22T19:57:49.372Z,58.80
2019-03-22T20:00:19.752Z,59.60
2019-03-22T20:02:49.289Z,59.40
2019-03-22T20:05:37.410Z,59.50
2019-03-22T20:08:06.318Z,59.80
2019-03-22T20:10:34.845Z,60.20
2019-03-22T20:13:03.857Z,60.20
2019-03-22T20:15:32.456Z,60.60
2019-03-22T20:18:01.026Z,60.90
2019-03-22T20:20:29.866Z,61.20
2019-03-22T20:22:58.521Z,62.60
2019-03-22T20:25:27.086Z,62.40
2019-03-22T20:27:55.563Z,62.50
2019-03-22T20:30:24.265Z,63.00
2019-03-22T20:32:52.778Z,63.30
2019-03-22T20:35:21.396Z,63.60
2019-03-22T20:37:50.060Z,63.70
2019-03-22T20:40:22.368Z,63.80
2019-03-22T20:42:51.022Z,64.20
2019-03-22T20:45:24.223Z,64.50
2019-03-22T20:47:49.902Z,64.70
2019-03-22T20:50:18.386Z,65.10
2019-03-22T20:52:49.344Z,65.10
2019-03-22T20:55:17.924Z,65.50
2019-03-22T20:57:46.551Z,65.70
2019-03-22T21:00:35.034Z,66.00
2019-03-22T21:03:03.517Z,66.20
2019-03-22T21:05:32.175Z,66.30
2019-03-22T21:08:00.692Z,66.40
2019-03-22T21:10:29.188Z,66.50
2019-03-22T21:12:59.332Z,67.60
2019-03-22T21:15:27.900Z,66.80
2019-03-22T21:18:09.222Z,66.90
2019-03-22T21:20:35.156Z,67.00
2019-03-22T21:23:09.726Z,67.20
2019-03-22T21:25:43.935Z,67.40
2019-03-22T21:28:12.531Z,67.70
2019-03-22T21:30:45.546Z,67.50
2019-03-22T21:33:14.012Z,67.80
2019-03-22T21:35:42.517Z,67.80
2019-03-22T21:38:11.489Z,67.90
2019-03-22T21:40:40.446Z,68.10
2019-03-22T21:43:09.230Z,68.20
2019-03-22T21:45:37.709Z,68.30
2019-03-22T21:48:06.266Z,68.20
2019-03-22T21:50:34.758Z,68.50
2019-03-22T21:53:03.231Z,68.50
2019-03-22T21:55:31.829Z,68.70
2019-03-22T21:58:00.356Z,69.10
2019-03-22T22:00:29.542Z,69.50
2019-03-22T22:02:58.192Z,69.50
2019-03-22T22:05:26.952Z,69.40
2019-03-22T22:07:55.782Z,69.60
2019-03-22T22:10:24.273Z,69.80
2019-03-22T22:12:52.846Z,70.60
2019-03-22T22:15:21.653Z,70.50
2019-03-22T22:17:50.165Z,70.80
2019-03-22T22:20:28.389Z,71.00
2019-03-22T22:22:49.016Z,71.30
2019-03-22T22:25:17.505Z,70.90
2019-03-22T22:27:46.296Z,71.70
2019-03-22T22:30:14.968Z,71.90
2019-03-22T22:32:43.485Z,72.10
2019-03-22T22:35:12.649Z,72.40
2019-03-22T22:37:41.148Z,72.70
2019-03-22T22:40:11.395Z,72.80
2019-03-22T22:42:40.085Z,73.20
2019-03-22T22:45:12.474Z,73.60
2019-03-22T22:47:40.945Z,73.50
2019-03-22T22:50:11.973Z,73.70
2019-03-22T22:52:40.853Z,73.80
2019-03-22T22:55:10.484Z,73.90
2019-03-22T22:57:39.105Z,74.00
2019-03-22T23:00:15.096Z,74.10
2019-03-22T23:02:44.811Z,74.40
2019-03-22T23:05:13.827Z,74.40
2019-03-22T23:07:42.688Z,74.70
2019-03-22T23:10:12.843Z,75.20
2019-03-22T23:12:42.051Z,75.00
2019-03-22T23:15:11.359Z,75.00
2019-03-22T23:17:40.050Z,75.10
2019-03-22T23:20:10.555Z,75.20
2019-03-22T23:22:39.202Z,75.30
2019-03-22T23:25:07.826Z,75.40
2019-03-22T23:27:37.558Z,75.50
2019-03-22T23:30:13.570Z,75.70
2019-03-22T23:32:42.087Z,75.60
2019-03-22T23:35:10.821Z,75.70
2019-03-22T23:37:39.319Z,75.90
2019-03-22T23:40:09.336Z,75.90
2019-03-22T23:42:37.877Z,75.90
2019-03-22T23:45:09.072Z,76.20
2019-03-22T23:47:37.845Z,76.40
2019-03-22T23:50:08.279Z,76.30
2019-03-22T23:52:36.788Z,76.20
2019-03-22T23:55:07.233Z,76.20
2019-03-22T23:57:35.791Z,77.30
